This is the latest recevied weather packets stored in our database for station/object OK1SBY-15. If no packets are shown the sender has not sent any weather packets the latest 10 day(s).
| Time | Temp. | Humidity | Pressure | Rain* | Wind** | Luminosity | Snow |
|---|---|---|---|---|---|---|---|
| 1777700915 | 10.56° C | 82% | 1009.9 hPa | 0 mm | - | - | - |
| 1777697321 | 7.78° C | 90% | 1009.6 hPa | 0 mm | - | - | - |
| 1777693731 | 6.67° C | 91% | 1009.5 hPa | 0 mm | - | - | - |
| 1777690141 | 7.22° C | 89% | 1009.8 hPa | 0 mm | - | - | - |
| 1777682962 | 8.33° C | 77% | 1010.2 hPa | 0 mm | - | - | - |
| 1777675783 | 10.56° C | 66% | 1010.4 hPa | 0 mm | - | - | - |
| 1777672196 | 10.56° C | 67% | 1010.5 hPa | 0 mm | - | - | - |
| 1777665015 | 11.67° C | 64% | 1010.6 hPa | 0 mm | - | - | - |
| 1777661427 | 11.67° C | 66% | 1010.7 hPa | 0 mm | - | - | - |
| 1777657855 | 15° C | 54% | 1010.3 hPa | 0 mm | - | - | - |
| 1777654286 | 22.22° C | 32% | 1010.2 hPa | 0 mm | - | - | - |
| 1777650688 | 26.67° C | 26% | 1010.4 hPa | 0 mm | - | - | - |
| 1777647087 | 26.67° C | 29% | 1011 hPa | 0 mm | - | - | - |
| 1777643481 | 27.78° C | 27% | 1011.2 hPa | 0 mm | - | - | - |
| 1777639871 | 26.11° C | 29% | 1011.9 hPa | 0 mm | - | - | - |
| 1777636259 | 28.89° C | 29% | 1012.3 hPa | 0 mm | - | - | - |
| 1777629033 | 23.33° C | 38% | 1013.4 hPa | 0 mm | - | - | - |
| 1777625424 | 17.78° C | 53% | 1013.7 hPa | 0 mm | - | - | - |
| 1777621822 | 14.44° C | 62% | 1014 hPa | 0 mm | - | - | - |
| 1777618219 | 12.22° C | 69% | 1013.9 hPa | 0 mm | - | - | - |
| 1777614621 | 8.33° C | 77% | 1013.8 hPa | 0 mm | - | - | - |
| 1777611022 | 6.11° C | 94% | 1013.8 hPa | 0 mm | - | - | - |
| 1777607432 | 3.89° C | 99% | 1013.7 hPa | 0 mm | - | - | - |
| 1777603844 | 4.44° C | 96% | 1013.7 hPa | 0 mm | - | - | - |
| 1777600253 | 5° C | 93% | 1013.6 hPa | 0 mm | - | - | - |
* Rain latest hour (hover to see other rain measurements)
** Current wind speed in m/s (hover to see current wind gust speed)